sensor_id;sensor_type;location;lat;lon;timestamp;P1;durP1;ratioP1;P2;durP2;ratioP2
11709;SDS011;5911;51.036;6.972;2023-11-22T00:00:35;9.10;;;8.20;;
11709;SDS011;5911;51.036;6.972;2023-11-22T00:03:03;9.60;;;8.60;;
11709;SDS011;5911;51.036;6.972;2023-11-22T00:05:30;9.97;;;9.07;;
11709;SDS011;5911;51.036;6.972;2023-11-22T00:07:58;9.13;;;8.10;;
11709;SDS011;5911;51.036;6.972;2023-11-22T00:10:25;11.73;;;10.00;;
11709;SDS011;5911;51.036;6.972;2023-11-22T00:12:54;10.13;;;9.10;;
11709;SDS011;5911;51.036;6.972;2023-11-22T00:15:22;10.80;;;9.30;;
11709;SDS011;5911;51.036;6.972;2023-11-22T00:17:50;9.87;;;8.87;;
11709;SDS011;5911;51.036;6.972;2023-11-22T00:20:19;11.33;;;9.33;;
11709;SDS011;5911;51.036;6.972;2023-11-22T00:22:47;9.83;;;8.63;;
11709;SDS011;5911;51.036;6.972;2023-11-22T00:25:14;10.30;;;9.00;;
11709;SDS011;5911;51.036;6.972;2023-11-22T00:27:42;9.37;;;8.40;;
11709;SDS011;5911;51.036;6.972;2023-11-22T00:30:10;10.67;;;8.80;;
11709;SDS011;5911;51.036;6.972;2023-11-22T00:32:37;10.47;;;9.20;;
11709;SDS011;5911;51.036;6.972;2023-11-22T00:35:08;11.47;;;9.87;;
11709;SDS011;5911;51.036;6.972;2023-11-22T00:37:36;9.00;;;8.10;;
11709;SDS011;5911;51.036;6.972;2023-11-22T00:40:04;9.57;;;8.57;;
11709;SDS011;5911;51.036;6.972;2023-11-22T00:42:36;9.33;;;8.43;;
11709;SDS011;5911;51.036;6.972;2023-11-22T00:45:07;9.50;;;8.37;;
11709;SDS011;5911;51.036;6.972;2023-11-22T00:47:36;10.97;;;9.83;;
11709;SDS011;5911;51.036;6.972;2023-11-22T00:50:04;9.70;;;8.70;;
11709;SDS011;5911;51.036;6.972;2023-11-22T00:52:33;10.60;;;9.50;;
11709;SDS011;5911;51.036;6.972;2023-11-22T00:55:00;11.53;;;8.97;;
11709;SDS011;5911;51.036;6.972;2023-11-22T00:57:28;10.70;;;9.23;;
11709;SDS011;5911;51.036;6.972;2023-11-22T00:59:56;10.03;;;9.03;;
11709;SDS011;5911;51.036;6.972;2023-11-22T01:02:24;9.70;;;8.60;;
11709;SDS011;5911;51.036;6.972;2023-11-22T01:04:52;9.23;;;8.23;;
11709;SDS011;5911;51.036;6.972;2023-11-22T01:07:20;9.97;;;8.70;;
11709;SDS011;5911;51.036;6.972;2023-11-22T01:09:48;9.90;;;8.90;;
11709;SDS011;5911;51.036;6.972;2023-11-22T01:12:16;10.10;;;8.60;;
11709;SDS011;5911;51.036;6.972;2023-11-22T01:14:43;10.13;;;9.10;;
11709;SDS011;5911;51.036;6.972;2023-11-22T01:17:11;10.97;;;9.57;;
11709;SDS011;5911;51.036;6.972;2023-11-22T01:19:38;9.60;;;8.50;;
11709;SDS011;5911;51.036;6.972;2023-11-22T01:22:06;9.73;;;8.80;;
11709;SDS011;5911;51.036;6.972;2023-11-22T01:24:33;9.80;;;8.80;;
11709;SDS011;5911;51.036;6.972;2023-11-22T01:27:04;9.93;;;8.57;;
11709;SDS011;5911;51.036;6.972;2023-11-22T01:29:32;9.90;;;8.83;;
11709;SDS011;5911;51.036;6.972;2023-11-22T01:32:00;10.57;;;9.37;;
11709;SDS011;5911;51.036;6.972;2023-11-22T01:34:28;9.93;;;8.77;;
11709;SDS011;5911;51.036;6.972;2023-11-22T01:36:56;10.10;;;9.00;;
11709;SDS011;5911;51.036;6.972;2023-11-22T01:39:24;9.80;;;8.80;;
11709;SDS011;5911;51.036;6.972;2023-11-22T01:41:52;9.67;;;8.63;;
11709;SDS011;5911;51.036;6.972;2023-11-22T01:44:21;10.17;;;8.60;;
11709;SDS011;5911;51.036;6.972;2023-11-22T01:46:50;12.20;;;8.43;;
11709;SDS011;5911;51.036;6.972;2023-11-22T01:49:17;9.50;;;8.60;;
11709;SDS011;5911;51.036;6.972;2023-11-22T01:51:45;10.90;;;7.93;;
11709;SDS011;5911;51.036;6.972;2023-11-22T01:54:12;10.23;;;8.60;;
11709;SDS011;5911;51.036;6.972;2023-11-22T01:56:40;9.30;;;8.40;;
11709;SDS011;5911;51.036;6.972;2023-11-22T01:59:08;9.07;;;7.80;;
11709;SDS011;5911;51.036;6.972;2023-11-22T02:01:37;9.17;;;8.20;;
11709;SDS011;5911;51.036;6.972;2023-11-22T02:04:05;8.90;;;7.90;;
11709;SDS011;5911;51.036;6.972;2023-11-22T02:06:33;9.77;;;8.27;;
11709;SDS011;5911;51.036;6.972;2023-11-22T02:09:01;10.37;;;8.90;;
11709;SDS011;5911;51.036;6.972;2023-11-22T02:11:29;9.03;;;8.13;;
11709;SDS011;5911;51.036;6.972;2023-11-22T02:13:56;10.43;;;8.83;;
11709;SDS011;5911;51.036;6.972;2023-11-22T02:16:24;10.50;;;8.88;;
11709;SDS011;5911;51.036;6.972;2023-11-22T02:18:53;9.63;;;8.67;;
11709;SDS011;5911;51.036;6.972;2023-11-22T02:21:21;9.07;;;8.20;;
11709;SDS011;5911;51.036;6.972;2023-11-22T02:23:50;9.03;;;8.13;;
11709;SDS011;5911;51.036;6.972;2023-11-22T02:26:17;9.80;;;8.80;;
11709;SDS011;5911;51.036;6.972;2023-11-22T02:28:45;9.37;;;8.47;;
11709;SDS011;5911;51.036;6.972;2023-11-22T02:31:15;10.03;;;8.97;;
11709;SDS011;5911;51.036;6.972;2023-11-22T02:33:43;9.57;;;8.67;;
11709;SDS011;5911;51.036;6.972;2023-11-22T02:36:11;10.27;;;9.27;;
11709;SDS011;5911;51.036;6.972;2023-11-22T02:38:39;9.63;;;8.63;;
11709;SDS011;5911;51.036;6.972;2023-11-22T02:41:09;10.00;;;9.03;;
11709;SDS011;5911;51.036;6.972;2023-11-22T02:43:37;9.47;;;8.57;;
11709;SDS011;5911;51.036;6.972;2023-11-22T02:46:04;9.17;;;8.27;;
11709;SDS011;5911;51.036;6.972;2023-11-22T02:48:32;8.83;;;7.97;;
11709;SDS011;5911;51.036;6.972;2023-11-22T02:50:59;8.83;;;7.93;;
11709;SDS011;5911;51.036;6.972;2023-11-22T02:53:27;8.60;;;7.70;;
11709;SDS011;5911;51.036;6.972;2023-11-22T02:55:58;9.33;;;8.43;;
11709;SDS011;5911;51.036;6.972;2023-11-22T02:58:28;8.83;;;7.97;;
11709;SDS011;5911;51.036;6.972;2023-11-22T03:00:56;8.70;;;7.90;;
11709;SDS011;5911;51.036;6.972;2023-11-22T03:03:23;8.90;;;7.70;;
11709;SDS011;5911;51.036;6.972;2023-11-22T03:05:51;8.97;;;7.23;;
11709;SDS011;5911;51.036;6.972;2023-11-22T03:08:18;9.23;;;8.20;;
11709;SDS011;5911;51.036;6.972;2023-11-22T03:10:46;9.20;;;7.73;;
11709;SDS011;5911;51.036;6.972;2023-11-22T03:13:13;9.45;;;8.45;;
11709;SDS011;5911;51.036;6.972;2023-11-22T03:15:42;7.93;;;7.13;;
11709;SDS011;5911;51.036;6.972;2023-11-22T03:18:10;9.07;;;8.17;;
11709;SDS011;5911;51.036;6.972;2023-11-22T03:20:37;8.90;;;8.00;;
11709;SDS011;5911;51.036;6.972;2023-11-22T03:23:05;8.93;;;8.07;;
11709;SDS011;5911;51.036;6.972;2023-11-22T03:25:32;9.20;;;8.30;;
11709;SDS011;5911;51.036;6.972;2023-11-22T03:28:00;9.50;;;8.60;;
11709;SDS011;5911;51.036;6.972;2023-11-22T03:30:27;9.20;;;8.33;;
11709;SDS011;5911;51.036;6.972;2023-11-22T03:32:56;9.00;;;8.13;;
11709;SDS011;5911;51.036;6.972;2023-11-22T03:35:24;9.77;;;8.87;;
11709;SDS011;5911;51.036;6.972;2023-11-22T03:37:51;9.83;;;8.83;;
11709;SDS011;5911;51.036;6.972;2023-11-22T03:40:19;9.47;;;8.57;;
11709;SDS011;5911;51.036;6.972;2023-11-22T03:42:47;9.67;;;8.67;;
11709;SDS011;5911;51.036;6.972;2023-11-22T03:45:14;9.50;;;8.60;;
11709;SDS011;5911;51.036;6.972;2023-11-22T03:47:42;8.83;;;7.93;;
11709;SDS011;5911;51.036;6.972;2023-11-22T03:50:11;9.23;;;8.30;;
11709;SDS011;5911;51.036;6.972;2023-11-22T03:52:41;9.70;;;8.70;;
11709;SDS011;5911;51.036;6.972;2023-11-22T03:55:08;9.07;;;8.20;;
11709;SDS011;5911;51.036;6.972;2023-11-22T03:57:35;8.50;;;7.70;;
11709;SDS011;5911;51.036;6.972;2023-11-22T04:00:03;8.77;;;7.97;;
11709;SDS011;5911;51.036;6.972;2023-11-22T04:02:37;9.30;;;8.37;;
11709;SDS011;5911;51.036;6.972;2023-11-22T04:05:05;9.00;;;8.10;;
11709;SDS011;5911;51.036;6.972;2023-11-22T04:07:34;9.43;;;8.53;;
11709;SDS011;5911;51.036;6.972;2023-11-22T04:10:02;9.10;;;7.77;;
11709;SDS011;5911;51.036;6.972;2023-11-22T04:12:30;9.10;;;8.20;;
11709;SDS011;5911;51.036;6.972;2023-11-22T04:14:59;9.07;;;8.17;;
11709;SDS011;5911;51.036;6.972;2023-11-22T04:17:27;10.73;;;9.27;;
11709;SDS011;5911;51.036;6.972;2023-11-22T04:19:55;9.77;;;8.67;;
11709;SDS011;5911;51.036;6.972;2023-11-22T04:22:23;9.70;;;8.67;;
11709;SDS011;5911;51.036;6.972;2023-11-22T04:24:52;10.30;;;9.20;;
11709;SDS011;5911;51.036;6.972;2023-11-22T04:27:19;10.47;;;9.37;;
11709;SDS011;5911;51.036;6.972;2023-11-22T04:29:47;10.20;;;9.13;;
11709;SDS011;5911;51.036;6.972;2023-11-22T04:32:14;10.50;;;9.40;;
11709;SDS011;5911;51.036;6.972;2023-11-22T04:34:42;9.47;;;8.57;;
11709;SDS011;5911;51.036;6.972;2023-11-22T04:37:08;11.33;;;9.93;;
11709;SDS011;5911;51.036;6.972;2023-11-22T04:39:36;10.13;;;9.10;;
11709;SDS011;5911;51.036;6.972;2023-11-22T04:42:05;10.37;;;9.03;;
11709;SDS011;5911;51.036;6.972;2023-11-22T04:44:32;9.23;;;8.33;;
11709;SDS011;5911;51.036;6.972;2023-11-22T04:47:00;10.27;;;9.17;;
11709;SDS011;5911;51.036;6.972;2023-11-22T04:49:27;10.30;;;9.20;;
11709;SDS011;5911;51.036;6.972;2023-11-22T04:51:55;10.60;;;9.57;;
11709;SDS011;5911;51.036;6.972;2023-11-22T04:54:22;9.93;;;8.93;;
11709;SDS011;5911;51.036;6.972;2023-11-22T04:56:50;9.77;;;8.80;;
11709;SDS011;5911;51.036;6.972;2023-11-22T04:59:19;8.90;;;8.10;;
11709;SDS011;5911;51.036;6.972;2023-11-22T05:01:46;10.57;;;8.90;;
11709;SDS011;5911;51.036;6.972;2023-11-22T05:04:15;9.97;;;8.97;;
11709;SDS011;5911;51.036;6.972;2023-11-22T05:06:42;11.87;;;9.03;;
11709;SDS011;5911;51.036;6.972;2023-11-22T05:09:10;11.10;;;8.90;;
11709;SDS011;5911;51.036;6.972;2023-11-22T05:11:39;9.33;;;8.20;;
11709;SDS011;5911;51.036;6.972;2023-11-22T05:14:07;9.97;;;8.37;;
11709;SDS011;5911;51.036;6.972;2023-11-22T05:16:36;10.10;;;9.10;;
11709;SDS011;5911;51.036;6.972;2023-11-22T05:19:03;10.37;;;9.27;;
11709;SDS011;5911;51.036;6.972;2023-11-22T05:21:31;9.50;;;8.50;;
11709;SDS011;5911;51.036;6.972;2023-11-22T05:23:59;9.23;;;8.33;;
11709;SDS011;5911;51.036;6.972;2023-11-22T05:26:26;9.40;;;8.43;;
11709;SDS011;5911;51.036;6.972;2023-11-22T05:28:54;9.93;;;8.87;;
11709;SDS011;5911;51.036;6.972;2023-11-22T05:31:21;9.50;;;8.50;;
11709;SDS011;5911;51.036;6.972;2023-11-22T05:33:50;9.83;;;8.83;;
11709;SDS011;5911;51.036;6.972;2023-11-22T05:36:18;9.83;;;8.67;;
11709;SDS011;5911;51.036;6.972;2023-11-22T05:38:46;9.90;;;8.90;;
11709;SDS011;5911;51.036;6.972;2023-11-22T05:41:13;9.50;;;8.50;;
11709;SDS011;5911;51.036;6.972;2023-11-22T05:43:42;9.30;;;8.40;;
11709;SDS011;5911;51.036;6.972;2023-11-22T05:46:09;9.20;;;8.30;;
11709;SDS011;5911;51.036;6.972;2023-11-22T05:48:38;9.07;;;8.17;;
11709;SDS011;5911;51.036;6.972;2023-11-22T05:51:07;9.27;;;8.27;;
11709;SDS011;5911;51.036;6.972;2023-11-22T05:53:35;8.60;;;7.80;;
11709;SDS011;5911;51.036;6.972;2023-11-22T05:56:03;8.90;;;8.00;;
11709;SDS011;5911;51.036;6.972;2023-11-22T05:58:33;11.13;;;8.60;;
11709;SDS011;5911;51.036;6.972;2023-11-22T06:01:04;8.07;;;7.27;;
11709;SDS011;5911;51.036;6.972;2023-11-22T06:03:32;9.60;;;8.23;;
11709;SDS011;5911;51.036;6.972;2023-11-22T06:06:00;8.13;;;7.33;;
11709;SDS011;5911;51.036;6.972;2023-11-22T06:08:28;8.97;;;7.37;;
11709;SDS011;5911;51.036;6.972;2023-11-22T06:10:57;9.47;;;7.93;;
11709;SDS011;5911;51.036;6.972;2023-11-22T06:13:25;8.07;;;7.27;;
11709;SDS011;5911;51.036;6.972;2023-11-22T06:15:53;8.40;;;7.50;;
11709;SDS011;5911;51.036;6.972;2023-11-22T06:18:21;8.27;;;7.27;;
11709;SDS011;5911;51.036;6.972;2023-11-22T06:20:48;7.43;;;6.53;;
11709;SDS011;5911;51.036;6.972;2023-11-22T06:23:16;7.23;;;6.50;;
11709;SDS011;5911;51.036;6.972;2023-11-22T06:25:46;8.27;;;6.93;;
11709;SDS011;5911;51.036;6.972;2023-11-22T06:28:13;7.50;;;6.67;;
11709;SDS011;5911;51.036;6.972;2023-11-22T06:30:41;7.37;;;6.67;;
11709;SDS011;5911;51.036;6.972;2023-11-22T06:33:09;8.27;;;7.47;;
11709;SDS011;5911;51.036;6.972;2023-11-22T06:35:36;7.93;;;6.70;;
11709;SDS011;5911;51.036;6.972;2023-11-22T06:38:04;7.67;;;6.73;;
11709;SDS011;5911;51.036;6.972;2023-11-22T06:40:31;7.47;;;6.70;;
11709;SDS011;5911;51.036;6.972;2023-11-22T06:43:00;7.13;;;6.03;;
11709;SDS011;5911;51.036;6.972;2023-11-22T06:45:30;7.80;;;6.57;;
11709;SDS011;5911;51.036;6.972;2023-11-22T06:47:58;6.27;;;5.60;;
11709;SDS011;5911;51.036;6.972;2023-11-22T06:50:26;7.60;;;6.27;;
11709;SDS011;5911;51.036;6.972;2023-11-22T06:52:53;6.47;;;5.20;;
11709;SDS011;5911;51.036;6.972;2023-11-22T06:55:21;7.57;;;5.87;;
11709;SDS011;5911;51.036;6.972;2023-11-22T06:57:48;6.87;;;5.93;;
11709;SDS011;5911;51.036;6.972;2023-11-22T07:00:18;7.27;;;5.83;;
11709;SDS011;5911;51.036;6.972;2023-11-22T07:02:46;6.83;;;5.67;;
11709;SDS011;5911;51.036;6.972;2023-11-22T07:05:14;6.70;;;5.33;;
11709;SDS011;5911;51.036;6.972;2023-11-22T07:07:41;7.63;;;5.73;;
11709;SDS011;5911;51.036;6.972;2023-11-22T07:10:09;8.80;;;5.67;;
11709;SDS011;5911;51.036;6.972;2023-11-22T07:12:37;6.23;;;5.63;;
11709;SDS011;5911;51.036;6.972;2023-11-22T07:15:06;9.30;;;5.70;;
11709;SDS011;5911;51.036;6.972;2023-11-22T07:17:37;7.37;;;6.00;;
11709;SDS011;5911;51.036;6.972;2023-11-22T07:20:05;8.57;;;6.03;;
11709;SDS011;5911;51.036;6.972;2023-11-22T07:22:35;7.07;;;5.60;;
11709;SDS011;5911;51.036;6.972;2023-11-22T07:25:03;7.50;;;6.10;;
11709;SDS011;5911;51.036;6.972;2023-11-22T07:27:31;7.90;;;6.07;;
11709;SDS011;5911;51.036;6.972;2023-11-22T07:29:59;6.97;;;6.27;;
11709;SDS011;5911;51.036;6.972;2023-11-22T07:32:27;6.63;;;5.93;;
11709;SDS011;5911;51.036;6.972;2023-11-22T07:34:56;7.43;;;6.03;;
11709;SDS011;5911;51.036;6.972;2023-11-22T07:37:23;7.60;;;5.93;;
11709;SDS011;5911;51.036;6.972;2023-11-22T07:39:51;8.07;;;5.93;;
11709;SDS011;5911;51.036;6.972;2023-11-22T07:42:19;6.70;;;6.00;;
11709;SDS011;5911;51.036;6.972;2023-11-22T07:44:48;7.23;;;6.10;;
11709;SDS011;5911;51.036;6.972;2023-11-22T07:47:22;7.03;;;6.20;;
11709;SDS011;5911;51.036;6.972;2023-11-22T07:49:50;8.33;;;6.50;;
11709;SDS011;5911;51.036;6.972;2023-11-22T07:52:19;7.10;;;6.17;;
11709;SDS011;5911;51.036;6.972;2023-11-22T07:54:47;7.47;;;6.17;;
11709;SDS011;5911;51.036;6.972;2023-11-22T07:57:14;7.37;;;6.67;;
11709;SDS011;5911;51.036;6.972;2023-11-22T07:59:42;7.80;;;6.33;;
11709;SDS011;5911;51.036;6.972;2023-11-22T08:02:09;6.37;;;5.77;;
11709;SDS011;5911;51.036;6.972;2023-11-22T08:04:38;7.37;;;6.57;;
11709;SDS011;5911;51.036;6.972;2023-11-22T08:07:06;6.57;;;5.87;;
11709;SDS011;5911;51.036;6.972;2023-11-22T08:09:35;7.50;;;6.53;;
11709;SDS011;5911;51.036;6.972;2023-11-22T08:12:03;6.97;;;6.27;;
11709;SDS011;5911;51.036;6.972;2023-11-22T08:14:32;7.70;;;6.23;;
11709;SDS011;5911;51.036;6.972;2023-11-22T08:17:00;7.47;;;6.40;;
11709;SDS011;5911;51.036;6.972;2023-11-22T08:19:28;8.43;;;6.93;;
11709;SDS011;5911;51.036;6.972;2023-11-22T08:21:55;7.77;;;6.60;;
11709;SDS011;5911;51.036;6.972;2023-11-22T08:24:23;7.20;;;6.37;;
11709;SDS011;5911;51.036;6.972;2023-11-22T08:26:52;7.93;;;6.10;;
11709;SDS011;5911;51.036;6.972;2023-11-22T08:29:19;7.13;;;6.13;;
11709;SDS011;5911;51.036;6.972;2023-11-22T08:31:47;7.80;;;7.00;;
11709;SDS011;5911;51.036;6.972;2023-11-22T08:34:16;7.13;;;6.43;;
11709;SDS011;5911;51.036;6.972;2023-11-22T08:36:44;8.07;;;6.83;;
11709;SDS011;5911;51.036;6.972;2023-11-22T08:39:11;8.87;;;6.87;;
11709;SDS011;5911;51.036;6.972;2023-11-22T08:41:39;8.13;;;6.87;;
11709;SDS011;5911;51.036;6.972;2023-11-22T08:44:08;8.77;;;7.00;;
11709;SDS011;5911;51.036;6.972;2023-11-22T08:46:35;8.13;;;6.90;;
11709;SDS011;5911;51.036;6.972;2023-11-22T08:49:03;8.07;;;7.03;;
11709;SDS011;5911;51.036;6.972;2023-11-22T08:51:30;7.40;;;6.53;;
11709;SDS011;5911;51.036;6.972;2023-11-22T08:53:59;6.37;;;5.77;;
11709;SDS011;5911;51.036;6.972;2023-11-22T08:56:27;6.77;;;6.07;;
11709;SDS011;5911;51.036;6.972;2023-11-22T08:58:55;7.60;;;6.20;;
11709;SDS011;5911;51.036;6.972;2023-11-22T09:01:23;7.90;;;6.20;;
11709;SDS011;5911;51.036;6.972;2023-11-22T09:03:52;8.70;;;6.87;;
11709;SDS011;5911;51.036;6.972;2023-11-22T09:06:19;6.97;;;6.27;;
11709;SDS011;5911;51.036;6.972;2023-11-22T09:08:47;7.67;;;6.87;;
11709;SDS011;5911;51.036;6.972;2023-11-22T09:11:15;7.97;;;6.67;;
11709;SDS011;5911;51.036;6.972;2023-11-22T09:13:46;9.70;;;6.83;;
11709;SDS011;5911;51.036;6.972;2023-11-22T09:16:14;8.53;;;7.23;;
11709;SDS011;5911;51.036;6.972;2023-11-22T09:18:44;9.60;;;7.60;;
11709;SDS011;5911;51.036;6.972;2023-11-22T09:21:12;8.77;;;7.20;;
11709;SDS011;5911;51.036;6.972;2023-11-22T09:23:43;8.37;;;7.00;;
11709;SDS011;5911;51.036;6.972;2023-11-22T09:26:11;9.23;;;7.27;;
11709;SDS011;5911;51.036;6.972;2023-11-22T09:28:38;8.43;;;6.87;;
11709;SDS011;5911;51.036;6.972;2023-11-22T09:31:06;9.63;;;6.93;;
11709;SDS011;5911;51.036;6.972;2023-11-22T09:33:33;7.70;;;6.73;;
11709;SDS011;5911;51.036;6.972;2023-11-22T09:36:02;8.07;;;7.10;;
11709;SDS011;5911;51.036;6.972;2023-11-22T09:38:34;7.57;;;6.40;;
11709;SDS011;5911;51.036;6.972;2023-11-22T09:41:03;7.67;;;6.37;;
11709;SDS011;5911;51.036;6.972;2023-11-22T09:43:31;7.43;;;5.57;;
11709;SDS011;5911;51.036;6.972;2023-11-22T09:45:59;6.40;;;5.77;;
11709;SDS011;5911;51.036;6.972;2023-11-22T09:48:28;5.53;;;4.87;;
11709;SDS011;5911;51.036;6.972;2023-11-22T09:51:01;5.53;;;4.97;;
11709;SDS011;5911;51.036;6.972;2023-11-22T09:53:32;5.13;;;4.63;;
11709;SDS011;5911;51.036;6.972;2023-11-22T09:56:00;5.00;;;4.50;;
11709;SDS011;5911;51.036;6.972;2023-11-22T09:58:29;5.80;;;4.90;;
11709;SDS011;5911;51.036;6.972;2023-11-22T10:00:57;5.63;;;4.13;;
11709;SDS011;5911;51.036;6.972;2023-11-22T10:03:26;5.47;;;4.10;;
11709;SDS011;5911;51.036;6.972;2023-11-22T10:05:54;5.63;;;4.63;;
11709;SDS011;5911;51.036;6.972;2023-11-22T10:08:23;5.83;;;4.67;;
11709;SDS011;5911;51.036;6.972;2023-11-22T10:10:52;6.30;;;4.47;;
11709;SDS011;5911;51.036;6.972;2023-11-22T10:13:20;5.43;;;4.93;;
11709;SDS011;5911;51.036;6.972;2023-11-22T10:15:48;5.27;;;4.77;;
11709;SDS011;5911;51.036;6.972;2023-11-22T10:18:16;5.70;;;4.80;;
11709;SDS011;5911;51.036;6.972;2023-11-22T10:20:44;4.53;;;4.10;;
11709;SDS011;5911;51.036;6.972;2023-11-22T10:23:13;5.90;;;4.83;;
11709;SDS011;5911;51.036;6.972;2023-11-22T10:25:44;9.30;;;4.87;;
11709;SDS011;5911;51.036;6.972;2023-11-22T10:28:15;5.70;;;4.50;;
11709;SDS011;5911;51.036;6.972;2023-11-22T10:30:45;4.10;;;3.70;;
11709;SDS011;5911;51.036;6.972;2023-11-22T10:33:12;4.83;;;4.20;;
11709;SDS011;5911;51.036;6.972;2023-11-22T10:35:42;4.87;;;3.77;;
11709;SDS011;5911;51.036;6.972;2023-11-22T10:38:09;4.53;;;3.60;;
11709;SDS011;5911;51.036;6.972;2023-11-22T10:40:37;3.70;;;3.40;;
11709;SDS011;5911;51.036;6.972;2023-11-22T10:43:05;4.47;;;3.77;;
11709;SDS011;5911;51.036;6.972;2023-11-22T10:45:38;4.03;;;3.47;;
11709;SDS011;5911;51.036;6.972;2023-11-22T10:48:11;4.33;;;3.73;;
11709;SDS011;5911;51.036;6.972;2023-11-22T10:50:42;5.40;;;3.97;;
11709;SDS011;5911;51.036;6.972;2023-11-22T10:53:11;3.57;;;3.00;;
11709;SDS011;5911;51.036;6.972;2023-11-22T10:55:41;4.60;;;3.80;;
11709;SDS011;5911;51.036;6.972;2023-11-22T10:58:09;3.60;;;3.13;;
11709;SDS011;5911;51.036;6.972;2023-11-22T11:00:39;3.87;;;3.23;;
11709;SDS011;5911;51.036;6.972;2023-11-22T11:03:08;3.33;;;2.90;;
11709;SDS011;5911;51.036;6.972;2023-11-22T11:05:38;2.90;;;2.63;;
11709;SDS011;5911;51.036;6.972;2023-11-22T11:08:08;3.93;;;2.83;;
11709;SDS011;5911;51.036;6.972;2023-11-22T11:10:38;2.97;;;2.60;;
11709;SDS011;5911;51.036;6.972;2023-11-22T11:13:05;3.57;;;3.03;;
11709;SDS011;5911;51.036;6.972;2023-11-22T11:15:33;3.20;;;2.70;;
11709;SDS011;5911;51.036;6.972;2023-11-22T11:18:02;4.37;;;3.03;;
11709;SDS011;5911;51.036;6.972;2023-11-22T11:20:32;3.37;;;2.90;;
11709;SDS011;5911;51.036;6.972;2023-11-22T11:23:01;4.87;;;3.20;;
11709;SDS011;5911;51.036;6.972;2023-11-22T11:25:31;3.17;;;2.87;;
11709;SDS011;5911;51.036;6.972;2023-11-22T11:27:59;3.80;;;3.40;;
11709;SDS011;5911;51.036;6.972;2023-11-22T11:30:43;3.40;;;3.10;;
11709;SDS011;5911;51.036;6.972;2023-11-22T11:33:12;3.77;;;3.37;;
11709;SDS011;5911;51.036;6.972;2023-11-22T11:35:44;5.03;;;3.30;;
11709;SDS011;5911;51.036;6.972;2023-11-22T11:38:13;3.63;;;3.27;;
11709;SDS011;5911;51.036;6.972;2023-11-22T11:40:41;4.13;;;3.63;;
11709;SDS011;5911;51.036;6.972;2023-11-22T11:43:10;3.60;;;3.20;;
11709;SDS011;5911;51.036;6.972;2023-11-22T11:45:38;3.60;;;3.30;;
11709;SDS011;5911;51.036;6.972;2023-11-22T11:48:06;5.20;;;3.53;;
11709;SDS011;5911;51.036;6.972;2023-11-22T11:50:35;3.77;;;3.33;;
11709;SDS011;5911;51.036;6.972;2023-11-22T11:53:03;3.97;;;3.43;;
11709;SDS011;5911;51.036;6.972;2023-11-22T11:55:30;5.50;;;3.53;;
11709;SDS011;5911;51.036;6.972;2023-11-22T11:58:02;4.17;;;3.43;;
11709;SDS011;5911;51.036;6.972;2023-11-22T12:00:31;4.27;;;3.30;;
11709;SDS011;5911;51.036;6.972;2023-11-22T12:02:58;4.10;;;3.33;;
11709;SDS011;5911;51.036;6.972;2023-11-22T12:05:26;3.87;;;3.17;;
11709;SDS011;5911;51.036;6.972;2023-11-22T12:07:55;4.30;;;2.90;;
11709;SDS011;5911;51.036;6.972;2023-11-22T12:10:23;4.43;;;2.73;;
11709;SDS011;5911;51.036;6.972;2023-11-22T12:12:51;3.30;;;3.00;;
11709;SDS011;5911;51.036;6.972;2023-11-22T12:15:18;4.23;;;3.27;;
11709;SDS011;5911;51.036;6.972;2023-11-22T12:17:48;4.07;;;3.20;;
11709;SDS011;5911;51.036;6.972;2023-11-22T12:20:17;3.30;;;3.00;;
11709;SDS011;5911;51.036;6.972;2023-11-22T12:22:47;3.90;;;3.50;;
11709;SDS011;5911;51.036;6.972;2023-11-22T12:25:18;3.60;;;3.30;;
11709;SDS011;5911;51.036;6.972;2023-11-22T12:27:46;3.20;;;2.87;;
11709;SDS011;5911;51.036;6.972;2023-11-22T12:30:27;3.00;;;2.70;;
11709;SDS011;5911;51.036;6.972;2023-11-22T12:32:55;3.20;;;2.90;;
11709;SDS011;5911;51.036;6.972;2023-11-22T12:35:23;4.13;;;3.20;;
11709;SDS011;5911;51.036;6.972;2023-11-22T12:37:50;4.17;;;3.07;;
11709;SDS011;5911;51.036;6.972;2023-11-22T12:40:22;3.17;;;2.67;;
11709;SDS011;5911;51.036;6.972;2023-11-22T12:42:51;2.67;;;2.47;;
11709;SDS011;5911;51.036;6.972;2023-11-22T12:45:20;3.30;;;2.60;;
11709;SDS011;5911;51.036;6.972;2023-11-22T12:47:50;3.60;;;2.83;;
11709;SDS011;5911;51.036;6.972;2023-11-22T12:50:30;3.30;;;2.67;;
11709;SDS011;5911;51.036;6.972;2023-11-22T12:52:58;3.97;;;2.97;;
11709;SDS011;5911;51.036;6.972;2023-11-22T12:55:27;3.60;;;3.10;;
11709;SDS011;5911;51.036;6.972;2023-11-22T12:57:57;3.70;;;3.10;;
11709;SDS011;5911;51.036;6.972;2023-11-22T13:00:28;4.53;;;3.20;;
11709;SDS011;5911;51.036;6.972;2023-11-22T13:02:56;3.93;;;2.80;;
11709;SDS011;5911;51.036;6.972;2023-11-22T13:05:29;3.17;;;2.87;;
11709;SDS011;5911;51.036;6.972;2023-11-22T13:07:57;3.63;;;2.70;;
11709;SDS011;5911;51.036;6.972;2023-11-22T13:10:29;4.00;;;3.17;;
11709;SDS011;5911;51.036;6.972;2023-11-22T13:12:57;3.67;;;3.13;;
11709;SDS011;5911;51.036;6.972;2023-11-22T13:15:24;3.77;;;3.30;;
11709;SDS011;5911;51.036;6.972;2023-11-22T13:17:53;3.57;;;3.20;;
11709;SDS011;5911;51.036;6.972;2023-11-22T13:20:22;3.87;;;3.30;;
11709;SDS011;5911;51.036;6.972;2023-11-22T13:22:50;4.13;;;3.07;;
11709;SDS011;5911;51.036;6.972;2023-11-22T13:25:17;3.60;;;3.20;;
11709;SDS011;5911;51.036;6.972;2023-11-22T13:27:47;3.27;;;2.60;;
11709;SDS011;5911;51.036;6.972;2023-11-22T13:30:15;4.60;;;3.17;;
11709;SDS011;5911;51.036;6.972;2023-11-22T13:32:48;3.43;;;2.70;;
11709;SDS011;5911;51.036;6.972;2023-11-22T13:35:18;3.23;;;2.93;;
11709;SDS011;5911;51.036;6.972;2023-11-22T13:37:48;4.33;;;3.10;;
11709;SDS011;5911;51.036;6.972;2023-11-22T13:40:17;3.40;;;3.00;;
11709;SDS011;5911;51.036;6.972;2023-11-22T13:42:49;3.23;;;2.50;;
11709;SDS011;5911;51.036;6.972;2023-11-22T13:45:19;2.77;;;2.47;;
11709;SDS011;5911;51.036;6.972;2023-11-22T13:47:47;2.40;;;2.20;;
11709;SDS011;5911;51.036;6.972;2023-11-22T13:50:17;4.33;;;2.70;;
11709;SDS011;5911;51.036;6.972;2023-11-22T13:52:48;2.73;;;2.33;;
11709;SDS011;5911;51.036;6.972;2023-11-22T13:55:15;3.40;;;2.63;;
11709;SDS011;5911;51.036;6.972;2023-11-22T13:57:52;2.77;;;1.97;;
11709;SDS011;5911;51.036;6.972;2023-11-22T14:00:20;3.17;;;2.63;;
11709;SDS011;5911;51.036;6.972;2023-11-22T14:02:49;3.33;;;2.87;;
11709;SDS011;5911;51.036;6.972;2023-11-22T14:05:17;3.00;;;2.70;;
11709;SDS011;5911;51.036;6.972;2023-11-22T14:07:45;2.63;;;2.43;;
11709;SDS011;5911;51.036;6.972;2023-11-22T14:10:15;3.43;;;2.50;;
11709;SDS011;5911;51.036;6.972;2023-11-22T14:12:43;2.87;;;2.43;;
11709;SDS011;5911;51.036;6.972;2023-11-22T14:15:12;3.53;;;2.70;;
11709;SDS011;5911;51.036;6.972;2023-11-22T14:17:40;3.07;;;2.77;;
11709;SDS011;5911;51.036;6.972;2023-11-22T14:20:08;3.10;;;2.80;;
11709;SDS011;5911;51.036;6.972;2023-11-22T14:22:37;3.67;;;3.03;;
11709;SDS011;5911;51.036;6.972;2023-11-22T14:25:05;3.43;;;2.93;;
11709;SDS011;5911;51.036;6.972;2023-11-22T14:27:33;4.03;;;2.90;;
11709;SDS011;5911;51.036;6.972;2023-11-22T14:30:01;2.90;;;2.50;;
11709;SDS011;5911;51.036;6.972;2023-11-22T14:32:33;4.30;;;3.17;;
11709;SDS011;5911;51.036;6.972;2023-11-22T14:35:01;6.13;;;4.57;;
11709;SDS011;5911;51.036;6.972;2023-11-22T14:37:29;5.50;;;4.00;;
11709;SDS011;5911;51.036;6.972;2023-11-22T14:39:57;5.20;;;4.27;;
11709;SDS011;5911;51.036;6.972;2023-11-22T14:42:25;4.33;;;3.23;;
11709;SDS011;5911;51.036;6.972;2023-11-22T14:44:53;2.83;;;2.50;;
11709;SDS011;5911;51.036;6.972;2023-11-22T14:47:21;3.93;;;3.10;;
11709;SDS011;5911;51.036;6.972;2023-11-22T14:49:52;3.33;;;2.83;;
11709;SDS011;5911;51.036;6.972;2023-11-22T14:52:21;4.17;;;2.60;;
11709;SDS011;5911;51.036;6.972;2023-11-22T14:54:49;4.00;;;3.00;;
11709;SDS011;5911;51.036;6.972;2023-11-22T14:57:18;3.87;;;2.50;;
11709;SDS011;5911;51.036;6.972;2023-11-22T14:59:46;2.70;;;2.50;;
11709;SDS011;5911;51.036;6.972;2023-11-22T15:02:15;2.33;;;2.00;;
11709;SDS011;5911;51.036;6.972;2023-11-22T15:04:43;2.53;;;2.27;;
11709;SDS011;5911;51.036;6.972;2023-11-22T15:07:11;2.93;;;2.10;;